WetterOnline ( https://www.wetteronline.at )

Wetter aktuell Pfälzer Wald

Aktuelles Wetter: Weinbiet/Pfalz (557m)

6-stündlich | Neueste Meldungen
Ortszeit Temperatur Wetter
Do, 20.06. 8:00 13.1° C bewölkt
Do, 20.06. 2:00 12.6° C leicht bewölkt
Mi, 19.06. 20:00 14.3° C wolkig
Mi, 19.06. 14:00 16.1° C bewölkt
Mi, 19.06. 8:00 17.1° C leichter Regen
Mi, 19.06. 2:00 17.8° C bewölkt
Di, 18.06. 20:00 21.1° C wolkig
Di, 18.06. 14:00 22.0° C bedeckt
Ortszeit Temperatur Wetter
Do, 20.06. 12:00 15.7° C Nebel
Do, 20.06. 11:50 15.7° C Nebel
Do, 20.06. 11:40 15.4° C Nebel
Do, 20.06. 11:30 15.1° C Nebel
Do, 20.06. 11:20 15.1° C Nebel
Do, 20.06. 11:10 15.2° C Nebel
Do, 20.06. 11:00 14.5° C Nebel
Do, 20.06. 10:30 13.8° C Nebel
Do, 20.06. 10:00 13.6° C Nebel
Do, 20.06. 9:30 13.3° C bedeckt
Do, 20.06. 9:00 12.5° C starker Regen
Ortszeit Relative Feuchte Sichtweite
Do, 20.06. 8:00 94% 50 km
Do, 20.06. 2:00 92% >70 km
Mi, 19.06. 20:00 92% 55 km
Mi, 19.06. 14:00 95% 6 km
Mi, 19.06. 8:00 85% 30 km
Mi, 19.06. 2:00 88% 40 km
Di, 18.06. 20:00 77% 55 km
Di, 18.06. 14:00 71% 50 km
Ortszeit Relative Feuchte Sichtweite
Do, 20.06. 12:00 92% 0.8 km
Do, 20.06. 11:50 92% -
Do, 20.06. 11:40 92% -
Do, 20.06. 11:30 92% 0.6 km
Do, 20.06. 11:20 92% -
Do, 20.06. 11:10 95% -
Do, 20.06. 11:00 96% 100 m
Do, 20.06. 10:30 97% 0.2 km
Do, 20.06. 10:00 97% 100 m
Do, 20.06. 9:30 98% 1.1 km
Do, 20.06. 9:00 97% 1.0 km
Ortszeit Niederschlagsmenge Niederschlagsart
Do, 20.06. 8:00 0.7 l/m2 in 12 Std. Regen
Do, 20.06. 2:00 0.0 l/m2 in 6 Std. -
Mi, 19.06. 20:00 2 l/m2 in 12 Std. Sprühregen
Mi, 19.06. 14:00 2 l/m2 in 6 Std. Regen
Mi, 19.06. 8:00 0.2 l/m2 in 12 Std. Regen
Mi, 19.06. 2:00 0.1 l/m2 in 6 Std. Regen
Di, 18.06. 20:00 0.1 l/m2 in 12 Std. Regen
Di, 18.06. 14:00 0.0 l/m2 in 6 Std. -
Ortszeit Niederschlagsmenge Niederschlagsart
Do, 20.06. 12:00 0.0 l/m2 in 1 Std. -
Do, 20.06. 11:50 keine Meldung -
Do, 20.06. 11:40 keine Meldung -
Do, 20.06. 11:30 0.0 l/m2 in 30 Min -
Do, 20.06. 11:20 keine Meldung -
Do, 20.06. 11:10 keine Meldung -
Do, 20.06. 11:00 0.0 l/m2 in 1 Std. Regen
Do, 20.06. 10:30 0.0 l/m2 in 30 Min -
Do, 20.06. 10:00 0.2 l/m2 in 1 Std. Regen
Do, 20.06. 9:30 0.2 l/m2 in 30 Min Schneeregen
Do, 20.06. 9:00 3.4 l/m2 in 1 Std. Regen
Ortszeit Stärke Spitze Richtung
km/h Bft. km/h Grad Sektor
Do, 20.06. 8:00 24 4 50 80° O
Do, 20.06. 2:00 22 4 43 40° NO
Mi, 19.06. 20:00 22 4 36 20° N
Mi, 19.06. 14:00 11 2 25 350° N
Mi, 19.06. 8:00 14 3 47 270° W
Mi, 19.06. 2:00 40 6 54 270° W
Di, 18.06. 20:00 25 4 47 250° W
Di, 18.06. 14:00 7 2 22 260° W
Ortszeit Stärke Spitze Richtung
km/h Bft. km/h Grad Sektor
Do, 20.06. 12:00 11 2 22 100° O
Do, 20.06. 11:50 11 2 - 100° O
Do, 20.06. 11:40 13 3 - 90° O
Do, 20.06. 11:30 14 3 22 100° O
Do, 20.06. 11:20 14 3 - 100° O
Do, 20.06. 11:10 14 3 - 90° O
Do, 20.06. 11:00 17 3 31 90° O
Do, 20.06. 10:30 22 4 32 80° O
Do, 20.06. 10:00 24 4 31 80° O
Do, 20.06. 9:30 22 4 29 90° O
Do, 20.06. 9:00 22 4 32 70° O
Ortszeit Untergrenze Bedeckung Gattung
total tief tief mittel hoch
Do, 20.06. 8:00 300 m 8/8 6/8 - - -
Do, 20.06. 2:00 9000 m 4/8 0/8 - - -
Mi, 19.06. 20:00 450 m 7/8 5/8 - - -
Mi, 19.06. 14:00 30 m 7/8 7/8 - - -
Mi, 19.06. 8:00 2100 m 8/8 3/8 - - -
Mi, 19.06. 2:00 2700 m 8/8 4/8 - - -
Di, 18.06. 20:00 1800 m 8/8 2/8 - - -
Di, 18.06. 14:00 1800 m 8/8 8/8 - - -
Ortszeit Bedeckungsgrad in Achtel und Wolkenuntergrenze
Do, 20.06. 12:00 8(<30m)
Do, 20.06. 11:50 8(<30m)
Do, 20.06. 11:40 8
Do, 20.06. 11:30 8(<30m)
Do, 20.06. 11:20 8(<30m)
Do, 20.06. 11:10 8
Do, 20.06. 11:00 8(<30m) 8(3900m)
Do, 20.06. 10:30 8(<30m)
Do, 20.06. 10:00 8(<30m)
Do, 20.06. 9:30 8(<30m)
Do, 20.06. 9:00 5(<30m) 8(240m) 8(780m)
Ortszeit Luftdruck NN (hPa) Tendenz (hPa in 3 Std.)
Do, 20.06. 8:00 1019 - 0,3
Do, 20.06. 2:00 1021 + 0,4
Mi, 19.06. 20:00 1019 + 1,3
Mi, 19.06. 14:00 1016 + 1,6
Mi, 19.06. 8:00 1012 + 0,1
Mi, 19.06. 2:00 1012 + 0,3
Di, 18.06. 20:00 1011 - 0,5
Di, 18.06. 14:00 1013 - 0,2
Ortszeit Luftdruck NN (hPa) Tendenz (hPa in 3 Std.)
Do, 20.06. 12:00 1018 - 0,5
Do, 20.06. 11:50 1018 keine Meldung
Do, 20.06. 11:40 1018 keine Meldung
Do, 20.06. 11:30 1018 - 0,9
Do, 20.06. 11:20 1018 keine Meldung
Do, 20.06. 11:10 1018 keine Meldung
Do, 20.06. 11:00 1018 - 0,9
Do, 20.06. 10:30 1018 - 0,8
Do, 20.06. 10:00 1019 - 0,3
Do, 20.06. 9:30 1019 - 0,7
Do, 20.06. 9:00 1020 - 0,4
Ortszeit Schneehöhe (cm)
Do, 20.06. 8:00 0
Do, 20.06. 2:00 0
Mi, 19.06. 20:00 0
Mi, 19.06. 14:00 0
Mi, 19.06. 8:00 0
Mi, 19.06. 2:00 0
Di, 18.06. 20:00 0
Di, 18.06. 14:00 0
Ortszeit Schneehöhe (cm)
Do, 20.06. 12:00 0
Do, 20.06. 11:50 0
Do, 20.06. 11:40 -
Do, 20.06. 11:30 0
Do, 20.06. 11:20 0
Do, 20.06. 11:10 -
Do, 20.06. 11:00 0
Do, 20.06. 10:30 0
Do, 20.06. 10:00 0
Do, 20.06. 9:30 0
Do, 20.06. 9:00 0
Link zu dieser Seite / Seite empfehlen

Das Wetter in ...